| time (UTC) | temp C | wind direction | speed KPH | gust KPH | rain 1hr cm | rain 24hr cm | rain mn cm | humidity % | barometer mb |
| 20260507094513 | 15 | 46 | 0.0 | 1.6 | 0.00 | 0.94 | 0.03 | 71 | 1014.4 |
| 20260507093012 | 15 | 46 | 0.0 | 3.2 | 0.00 | 0.94 | 0.03 | 71 | 1014.4 |
| 20260507091507 | 13 | 46 | 0.0 | 6.4 | 0.00 | 0.94 | 0.03 | 72 | 1014.3 |
| 20260507090105 | 13 | 46 | 0.0 | 4.8 | 0.00 | 0.94 | 0.03 | 73 | 1014.0 |
| 20260507084556 | 13 | 46 | 0.0 | 1.6 | 0.00 | 0.94 | 0.03 | 74 | 1014.0 |
| 20260507083051 | 12 | 46 | 0.0 | 0.0 | 0.00 | 0.94 | 0.03 | 76 | 1013.8 |
| 20260507081549 | 12 | 46 | 0.0 | 4.8 | 0.00 | 0.94 | 0.03 | 77 | 1013.6 |
| 20260507080042 | 12 | 46 | 0.0 | 3.2 | 0.00 | 0.94 | 0.03 | 77 | 1013.6 |
| 20260507074538 | 12 | 46 | 0.0 | 8.0 | 0.00 | 0.94 | 0.03 | 77 | 1013.5 |
| 20260507073037 | 12 | 46 | 0.0 | 1.6 | 0.00 | 0.94 | 0.03 | 77 | 1013.5 |
| 20260507071557 | 12 | 44 | 0.0 | 1.6 | 0.00 | 0.94 | 0.03 | 77 | 1013.4 |
| 20260507070025 | 13 | 44 | 0.0 | 0.0 | 0.00 | 0.94 | 0.03 | 75 | 1013.3 |
| 20260507064523 | 13 | 44 | 0.0 | 3.2 | 0.00 | 0.94 | 0.03 | 76 | 1013.4 |
| 20260507063017 | 12 | 44 | 0.0 | 1.6 | 0.03 | 0.94 | 0.03 | 37 | 1013.4 |
| 20260507061512 | 10 | 44 | 0.0 | 0.0 | 0.03 | 0.94 | 0.03 | 1 | 1013.3 |
| 20260507060006 | 9 | 44 | 0.0 | 0.0 | 0.03 | 0.94 | 0.03 | 1 | 1013.1 |
| 20260507054503 | 8 | 44 | 0.0 | 0.0 | 0.03 | 0.97 | 0.03 | 1 | 1013.0 |
| 20260507053129 | 8 | 44 | 0.0 | 0.0 | 0.00 | 0.94 | 0.00 | 1 | 1012.9 |
| 20260507051604 | 7 | 44 | 0.0 | 0.0 | 0.00 | 0.94 | 0.00 | 1 | 1012.6 |
| 20260507050048 | 7 | 44 | 0.0 | 0.0 | 0.00 | 0.94 | 0.00 | 1 | 1012.6 |
| 20260507044546 | 7 | 44 | 0.0 | 0.0 | 0.00 | 0.94 | 0.00 | 1 | 1012.4 |
| 20260507043042 | 7 | 44 | 0.0 | 0.0 | 0.00 | 0.94 | 0.00 | 1 | 1012.1 |
| 20260507041537 | 7 | 44 | 0.0 | 0.0 | 0.00 | 0.94 | 0.00 | 1 | 1012.0 |
| 20260507040033 | 7 | 44 | 0.0 | 0.0 | 0.00 | 0.94 | 0.00 | 1 | 1011.9 |
| 20260507034535 | 7 | 44 | 0.0 | 0.0 | 0.00 | 0.94 | 0.00 | 1 | 1011.8 |
| 20260507033036 | 7 | 44 | 0.0 | 0.0 | 0.00 | 0.94 | 0.00 | 1 | 1011.8 |
| 20260507031518 | 7 | 44 | 0.0 | 0.0 | 0.00 | 0.94 | 0.00 | 1 | 1011.8 |
| 20260507030014 | 7 | 44 | 0.0 | 0.0 | 0.00 | 0.94 | 0.00 | 1 | 1011.7 |
| 20260507024511 | 7 | 44 | 0.0 | 0.0 | 0.00 | 0.94 | 0.00 | 1 | 1011.6 |
| 20260507023018 | 7 | 44 | 0.0 | 0.0 | 0.00 | 0.94 | 0.00 | 1 | 1011.6 |
| 20260507021502 | 7 | 44 | 0.0 | 0.0 | 0.00 | 0.94 | 0.00 | 1 | 1011.6 |
| 20260507020058 | 7 | 44 | 0.0 | 0.0 | 0.00 | 0.94 | 0.00 | 1 | 1011.4 |
| 20260507014602 | 6 | 44 | 0.0 | 0.0 | 0.00 | 0.94 | 0.00 | 1 | 1011.3 |
| 20260507013051 | 6 | 44 | 0.0 | 0.0 | 0.00 | 0.94 | 0.00 | 1 | 1011.2 |
| 20260507011544 | 6 | 44 | 0.0 | 0.0 | 0.00 | 0.94 | 0.00 | 1 | 1011.1 |
| 20260507010039 | 6 | 44 | 0.0 | 0.0 | 0.00 | 0.94 | 0.00 | 1 | 1011.2 |
| 20260507004539 | 6 | 44 | 0.0 | 0.0 | 0.00 | 0.94 | 0.00 | 1 | 1011.1 |
| 20260507003031 | 6 | 44 | 0.0 | 0.0 | 0.00 | 0.94 | 0.00 | 1 | 1011.1 |
| 20260507001526 | 7 | 44 | 0.0 | 0.0 | 0.00 | 0.94 | 0.00 | 1 | 1011.2 |
| 20260507000023 | 7 | 44 | 0.0 | 0.0 | 0.00 | 0.94 | 0.00 | 1 | 1011.2 |
| 20260506234517 | 7 | 44 | 0.0 | 0.0 | 0.00 | 0.94 | 0.00 | 1 | 1011.3 |
| 20260506233014 | 8 | 44 | 0.0 | 0.0 | 0.00 | 0.94 | 0.00 | 1 | 1011.3 |
| 20260506231509 | 8 | 44 | 0.0 | 0.0 | 0.00 | 0.94 | 0.00 | 1 | 1011.1 |
| 20260506230004 | 8 | 44 | 0.0 | 0.0 | 0.00 | 0.94 | 0.00 | 1 | 1011.0 |
| 20260506224600 | 8 | 44 | 0.0 | 0.0 | 0.00 | 0.94 | 0.00 | 2 | 1011.1 |
| 20260506223105 | 8 | 44 | 0.0 | 0.0 | 0.00 | 0.94 | 0.00 | 6 | 1011.0 |
| 20260506221551 | 8 | 44 | 0.0 | 0.0 | 0.00 | 0.94 | 0.00 | 6 | 1011.0 |
| 20260506220049 | 8 | 44 | 0.0 | 0.0 | 0.00 | 0.94 | 0.00 | 8 | 1010.9 |
| 20260506214551 | 8 | 44 | 0.0 | 0.0 | 0.00 | 1.07 | 0.94 | 5 | 1010.8 |
| 20260506213041 | 8 | 44 | 0.0 | 0.0 | 0.00 | 1.07 | 0.94 | 1 | 1010.6 |
| 20260506211540 | 8 | 44 | 0.0 | 1.6 | 0.00 | 1.07 | 0.94 | 1 | 1010.6 |
| 20260506210035 | 8 | 44 | 0.0 | 0.0 | 0.00 | 1.07 | 0.94 | 2 | 1010.5 |
| 20260506204530 | 8 | 44 | 0.0 | 0.0 | 0.03 | 1.57 | 0.94 | 3 | 1010.6 |
| 20260506203029 | 8 | 44 | 0.0 | 0.0 | 0.03 | 1.57 | 0.94 | 6 | 1010.4 |
| 20260506201522 | 8 | 44 | 0.0 | 1.6 | 0.03 | 1.57 | 0.94 | 10 | 1010.1 |
| 20260506200021 | 8 | 44 | 0.0 | 0.0 | 0.03 | 1.57 | 0.94 | 15 | 1009.8 |
| 20260506194513 | 8 | 44 | 0.0 | 0.0 | 0.00 | 2.03 | 0.91 | 21 | 1009.8 |
| 20260506193008 | 8 | 44 | 0.0 | 0.0 | 0.00 | 2.03 | 0.91 | 31 | 1009.8 |
| 20260506191505 | 8 | 44 | 0.0 | 1.6 | 0.00 | 2.03 | 0.91 | 40 | 1009.8 |
| 20260506190100 | 9 | 44 | 0.0 | 0.0 | 0.00 | 2.03 | 0.91 | 40 | 1009.4 |
| 20260506184555 | 9 | 44 | 0.0 | 1.6 | 0.00 | 2.03 | 0.91 | 36 | 1009.3 |
| 20260506183056 | 9 | 44 | 0.0 | 0.0 | 0.00 | 2.03 | 0.91 | 37 | 1008.9 |
| 20260506181556 | 9 | 44 | 0.0 | 1.6 | 0.00 | 2.03 | 0.91 | 45 | 1008.5 |
| 20260506180103 | 9 | 44 | 0.0 | 4.8 | 0.00 | 2.03 | 0.91 | 49 | 1008.2 |
| 20260506174539 | 10 | 44 | 0.0 | 0.0 | 0.00 | 2.03 | 0.91 | 54 | 1008.0 |
| 20260506173040 | 10 | 44 | 0.0 | 4.8 | 0.00 | 2.03 | 0.91 | 59 | 1007.6 |
| 20260506171529 | 11 | 44 | 0.0 | 1.6 | 0.00 | 2.03 | 0.91 | 62 | 1007.4 |
| 20260506170013 | 11 | 44 | 0.0 | 9.7 | 0.00 | 2.03 | 0.91 | 63 | 1007.0 |
| 20260506164510 | 13 | 44 | 0.0 | 11.3 | 0.00 | 2.03 | 0.91 | 17 | 1006.7 |
| 20260506163010 | 13 | 44 | 0.0 | 0.0 | 0.00 | 2.03 | 0.91 | 16 | 1006.1 |
| 20260506161600 | 13 | 44 | 0.0 | 1.6 | 0.00 | 2.03 | 0.91 | 26 | 1005.9 |
| 20260506160056 | 13 | 44 | 0.0 | 0.0 | 0.00 | 2.03 | 0.91 | 35 | 1005.6 |
| 20260506154552 | 13 | 44 | 0.0 | 0.0 | 0.03 | 2.03 | 0.91 | 49 | 1005.7 |
| 20260506153035 | 13 | 44 | 0.0 | 0.0 | 0.05 | 2.03 | 0.91 | 25 | 1005.4 |
| 20260506151532 | 13 | 44 | 0.0 | 0.0 | 0.38 | 2.03 | 0.91 | 1 | 1005.2 |
| 20260506150018 | 12 | 44 | 0.0 | 1.6 | 0.89 | 2.03 | 0.91 | 1 | 1004.6 |
| 20260506144519 | 11 | 44 | 0.0 | 0.0 | 0.86 | 2.03 | 0.89 | 17 | 1005.7 |
| 20260506143013 | 12 | 44 | 0.0 | 3.2 | 0.84 | 2.01 | 0.86 | 60 | 1005.8 |
| 20260506141504 | 14 | 44 | 0.0 | 19.3 | 0.43 | 1.60 | 0.46 | 77 | 1004.5 |
| 20260506140100 | 17 | 44 | 0.0 | 0.0 | 0.00 | 1.17 | 0.03 | 70 | 1002.8 |
| 20260506140000 | 17 | 44 | 0.0 | 0.0 | 0.00 | 1.17 | 0.03 | 71 | 1002.7 |
| 20260506134601 | 18 | 44 | 0.0 | 0.0 | 0.00 | 1.17 | 0.03 | 68 | 1003.2 |
| 20260506133057 | 18 | 44 | 0.0 | 1.6 | 0.00 | 1.17 | 0.03 | 63 | 1003.3 |
| 20260506131546 | 18 | 44 | 0.0 | 3.2 | 0.00 | 1.17 | 0.03 | 64 | 1003.4 |
| 20260506130042 | 17 | 44 | 0.0 | 1.6 | 0.00 | 1.17 | 0.03 | 65 | 1003.5 |
| 20260506124540 | 17 | 44 | 0.0 | 1.6 | 0.00 | 1.17 | 0.03 | 64 | 1003.7 |
| 20260506123032 | 17 | 44 | 0.0 | 1.6 | 0.00 | 1.17 | 0.03 | 64 | 1003.8 |
| 20260506121529 | 17 | 44 | 0.0 | 1.6 | 0.00 | 1.17 | 0.03 | 67 | 1004.0 |
| 20260506120029 | 18 | 44 | 0.0 | 3.2 | 0.00 | 1.17 | 0.03 | 65 | 1004.1 |
| 20260506114522 | 18 | 44 | 0.0 | 3.2 | 0.00 | 1.17 | 0.03 | 65 | 1004.2 |
| 20260506113015 | 17 | 44 | 0.0 | 1.6 | 0.00 | 1.17 | 0.03 | 69 | 1004.4 |
| 20260506111510 | 17 | 44 | 0.0 | 1.6 | 0.00 | 1.17 | 0.03 | 67 | 1004.7 |
| 20260506110007 | 17 | 44 | 0.0 | 0.0 | 0.00 | 1.17 | 0.03 | 69 | 1004.8 |
| 20260506104503 | 16 | 44 | 0.0 | 1.6 | 0.00 | 1.17 | 0.03 | 72 | 1004.9 |
| 20260506103057 | 16 | 44 | 0.0 | 0.0 | 0.00 | 1.17 | 0.03 | 75 | 1005.4 |
| 20260506101553 | 16 | 44 | 0.0 | 0.0 | 0.00 | 1.17 | 0.03 | 73 | 1005.5 |
| 20260506100051 | 15 | 44 | 0.0 | 1.6 | 0.00 | 1.17 | 0.03 | 73 | 1005.4 |